sensor_id;sensor_type;location;lat;lon;timestamp;temperature;humidity
6146;DHT22;3104;50.348;7.620;2023-05-07T00:00:16;14.50;99.90
6146;DHT22;3104;50.348;7.620;2023-05-07T00:02:44;14.60;99.90
6146;DHT22;3104;50.348;7.620;2023-05-07T00:05:10;14.60;99.90
6146;DHT22;3104;50.348;7.620;2023-05-07T00:07:36;14.60;99.90
6146;DHT22;3104;50.348;7.620;2023-05-07T00:10:02;14.70;99.90
6146;DHT22;3104;50.348;7.620;2023-05-07T00:12:28;14.60;99.90
6146;DHT22;3104;50.348;7.620;2023-05-07T00:14:57;14.60;99.90
6146;DHT22;3104;50.348;7.620;2023-05-07T00:17:23;14.60;99.90
6146;DHT22;3104;50.348;7.620;2023-05-07T00:19:48;14.80;99.90
6146;DHT22;3104;50.348;7.620;2023-05-07T00:22:14;14.90;99.90
6146;DHT22;3104;50.348;7.620;2023-05-07T00:24:40;14.90;99.90
6146;DHT22;3104;50.348;7.620;2023-05-07T00:27:05;14.80;99.90
6146;DHT22;3104;50.348;7.620;2023-05-07T00:29:31;14.70;99.90
6146;DHT22;3104;50.348;7.620;2023-05-07T00:31:56;14.70;99.90
6146;DHT22;3104;50.348;7.620;2023-05-07T00:34:22;14.60;99.90
6146;DHT22;3104;50.348;7.620;2023-05-07T00:36:48;14.60;99.90
6146;DHT22;3104;50.348;7.620;2023-05-07T00:39:13;14.50;99.90
6146;DHT22;3104;50.348;7.620;2023-05-07T00:41:39;14.50;99.90
6146;DHT22;3104;50.348;7.620;2023-05-07T00:44:05;14.50;99.90
6146;DHT22;3104;50.348;7.620;2023-05-07T00:46:32;14.40;99.90
6146;DHT22;3104;50.348;7.620;2023-05-07T00:48:59;14.50;99.90
6146;DHT22;3104;50.348;7.620;2023-05-07T00:51:25;14.50;99.90
6146;DHT22;3104;50.348;7.620;2023-05-07T00:53:53;14.50;99.90
6146;DHT22;3104;50.348;7.620;2023-05-07T00:56:22;14.40;99.90
6146;DHT22;3104;50.348;7.620;2023-05-07T00:58:49;14.50;99.90
6146;DHT22;3104;50.348;7.620;2023-05-07T01:01:15;14.50;99.90
6146;DHT22;3104;50.348;7.620;2023-05-07T01:03:43;14.40;99.90
6146;DHT22;3104;50.348;7.620;2023-05-07T01:06:10;14.50;99.90
6146;DHT22;3104;50.348;7.620;2023-05-07T01:08:38;14.50;99.90
6146;DHT22;3104;50.348;7.620;2023-05-07T01:11:06;14.50;99.90
6146;DHT22;3104;50.348;7.620;2023-05-07T01:13:32;14.50;99.90
6146;DHT22;3104;50.348;7.620;2023-05-07T01:15:58;14.50;99.90
6146;DHT22;3104;50.348;7.620;2023-05-07T01:18:24;14.60;99.90
6146;DHT22;3104;50.348;7.620;2023-05-07T01:20:51;14.50;99.90
6146;DHT22;3104;50.348;7.620;2023-05-07T01:23:18;14.50;99.90
6146;DHT22;3104;50.348;7.620;2023-05-07T01:25:43;14.50;99.90
6146;DHT22;3104;50.348;7.620;2023-05-07T01:28:15;14.50;99.90
6146;DHT22;3104;50.348;7.620;2023-05-07T01:30:42;14.40;99.90
6146;DHT22;3104;50.348;7.620;2023-05-07T01:33:13;14.40;99.90
6146;DHT22;3104;50.348;7.620;2023-05-07T01:35:43;14.40;99.90
6146;DHT22;3104;50.348;7.620;2023-05-07T01:38:09;14.30;99.90
6146;DHT22;3104;50.348;7.620;2023-05-07T01:40:35;14.30;99.90
6146;DHT22;3104;50.348;7.620;2023-05-07T01:43:02;14.30;99.90
6146;DHT22;3104;50.348;7.620;2023-05-07T01:45:28;14.20;99.90
6146;DHT22;3104;50.348;7.620;2023-05-07T01:47:54;14.20;99.90
6146;DHT22;3104;50.348;7.620;2023-05-07T01:50:20;14.20;99.90
6146;DHT22;3104;50.348;7.620;2023-05-07T01:52:47;14.30;99.90
6146;DHT22;3104;50.348;7.620;2023-05-07T01:55:14;14.30;99.90
6146;DHT22;3104;50.348;7.620;2023-05-07T01:57:40;14.50;99.90
6146;DHT22;3104;50.348;7.620;2023-05-07T02:00:07;14.60;99.90
6146;DHT22;3104;50.348;7.620;2023-05-07T02:02:34;14.50;99.90
6146;DHT22;3104;50.348;7.620;2023-05-07T02:05:00;14.40;99.90
6146;DHT22;3104;50.348;7.620;2023-05-07T02:07:26;14.40;99.90
6146;DHT22;3104;50.348;7.620;2023-05-07T02:09:52;14.40;99.90
6146;DHT22;3104;50.348;7.620;2023-05-07T02:12:17;14.50;99.90
6146;DHT22;3104;50.348;7.620;2023-05-07T02:14:43;14.40;99.90
6146;DHT22;3104;50.348;7.620;2023-05-07T02:17:08;14.40;99.90
6146;DHT22;3104;50.348;7.620;2023-05-07T02:19:34;14.40;99.90
6146;DHT22;3104;50.348;7.620;2023-05-07T02:22:00;14.40;99.90
6146;DHT22;3104;50.348;7.620;2023-05-07T02:24:26;14.40;99.90
6146;DHT22;3104;50.348;7.620;2023-05-07T02:26:51;14.40;99.90
6146;DHT22;3104;50.348;7.620;2023-05-07T02:29:17;14.40;99.90
6146;DHT22;3104;50.348;7.620;2023-05-07T02:31:42;14.40;99.90
6146;DHT22;3104;50.348;7.620;2023-05-07T02:34:08;14.30;99.90
6146;DHT22;3104;50.348;7.620;2023-05-07T02:36:33;14.30;99.90
6146;DHT22;3104;50.348;7.620;2023-05-07T02:38:59;14.20;99.90
6146;DHT22;3104;50.348;7.620;2023-05-07T02:41:24;14.20;99.90
6146;DHT22;3104;50.348;7.620;2023-05-07T02:43:50;14.20;99.90
6146;DHT22;3104;50.348;7.620;2023-05-07T02:46:15;14.20;99.90
6146;DHT22;3104;50.348;7.620;2023-05-07T02:48:41;14.20;99.90
6146;DHT22;3104;50.348;7.620;2023-05-07T02:51:07;14.20;99.90
6146;DHT22;3104;50.348;7.620;2023-05-07T02:53:32;14.20;99.90
6146;DHT22;3104;50.348;7.620;2023-05-07T02:56:00;14.20;99.90
6146;DHT22;3104;50.348;7.620;2023-05-07T02:58:26;14.20;99.90
6146;DHT22;3104;50.348;7.620;2023-05-07T03:00:52;14.20;99.90
6146;DHT22;3104;50.348;7.620;2023-05-07T03:03:20;14.20;99.90
6146;DHT22;3104;50.348;7.620;2023-05-07T03:05:45;14.10;99.90
6146;DHT22;3104;50.348;7.620;2023-05-07T03:08:11;14.00;99.90
6146;DHT22;3104;50.348;7.620;2023-05-07T03:10:37;14.00;99.90
6146;DHT22;3104;50.348;7.620;2023-05-07T03:13:03;14.10;99.90
6146;DHT22;3104;50.348;7.620;2023-05-07T03:15:28;14.00;99.90
6146;DHT22;3104;50.348;7.620;2023-05-07T03:17:54;14.00;99.90
6146;DHT22;3104;50.348;7.620;2023-05-07T03:20:20;14.10;99.90
6146;DHT22;3104;50.348;7.620;2023-05-07T03:22:45;14.10;99.90
6146;DHT22;3104;50.348;7.620;2023-05-07T03:25:12;14.10;99.90
6146;DHT22;3104;50.348;7.620;2023-05-07T03:27:38;14.10;99.90
6146;DHT22;3104;50.348;7.620;2023-05-07T03:30:04;14.10;99.90
6146;DHT22;3104;50.348;7.620;2023-05-07T03:32:29;14.10;99.90
6146;DHT22;3104;50.348;7.620;2023-05-07T03:34:55;14.10;99.90
6146;DHT22;3104;50.348;7.620;2023-05-07T03:37:21;14.20;99.90
6146;DHT22;3104;50.348;7.620;2023-05-07T03:39:47;14.20;99.90
6146;DHT22;3104;50.348;7.620;2023-05-07T03:42:12;14.10;99.90
6146;DHT22;3104;50.348;7.620;2023-05-07T03:44:38;14.00;99.90
6146;DHT22;3104;50.348;7.620;2023-05-07T03:47:04;14.00;99.90
6146;DHT22;3104;50.348;7.620;2023-05-07T03:49:29;14.00;99.90
6146;DHT22;3104;50.348;7.620;2023-05-07T03:51:55;13.90;99.90
6146;DHT22;3104;50.348;7.620;2023-05-07T03:54:21;14.00;99.90
6146;DHT22;3104;50.348;7.620;2023-05-07T03:56:46;13.80;99.90
6146;DHT22;3104;50.348;7.620;2023-05-07T03:59:15;13.80;99.90
6146;DHT22;3104;50.348;7.620;2023-05-07T04:01:40;13.80;99.90
6146;DHT22;3104;50.348;7.620;2023-05-07T04:04:06;13.80;99.90
6146;DHT22;3104;50.348;7.620;2023-05-07T04:06:32;13.80;99.90
6146;DHT22;3104;50.348;7.620;2023-05-07T04:08:57;13.80;99.90
6146;DHT22;3104;50.348;7.620;2023-05-07T04:11:23;13.90;99.90
6146;DHT22;3104;50.348;7.620;2023-05-07T04:13:49;13.90;99.90
6146;DHT22;3104;50.348;7.620;2023-05-07T04:16:15;13.80;99.90
6146;DHT22;3104;50.348;7.620;2023-05-07T04:18:41;14.00;99.90
6146;DHT22;3104;50.348;7.620;2023-05-07T04:21:17;14.00;99.90
6146;DHT22;3104;50.348;7.620;2023-05-07T04:23:43;14.00;99.90
6146;DHT22;3104;50.348;7.620;2023-05-07T04:26:08;13.90;99.90
6146;DHT22;3104;50.348;7.620;2023-05-07T04:28:34;13.90;99.90
6146;DHT22;3104;50.348;7.620;2023-05-07T04:31:00;13.90;99.90
6146;DHT22;3104;50.348;7.620;2023-05-07T04:33:26;13.90;99.90
6146;DHT22;3104;50.348;7.620;2023-05-07T04:35:51;13.90;99.90
6146;DHT22;3104;50.348;7.620;2023-05-07T04:38:17;14.00;99.90
6146;DHT22;3104;50.348;7.620;2023-05-07T04:40:44;13.80;99.90
6146;DHT22;3104;50.348;7.620;2023-05-07T04:43:09;13.80;99.90
6146;DHT22;3104;50.348;7.620;2023-05-07T04:45:36;13.70;99.90
6146;DHT22;3104;50.348;7.620;2023-05-07T04:48:01;13.80;99.90
6146;DHT22;3104;50.348;7.620;2023-05-07T04:50:27;13.80;99.90
6146;DHT22;3104;50.348;7.620;2023-05-07T04:52:52;13.80;99.90
6146;DHT22;3104;50.348;7.620;2023-05-07T04:55:18;13.90;99.90
6146;DHT22;3104;50.348;7.620;2023-05-07T04:57:44;14.00;99.90
6146;DHT22;3104;50.348;7.620;2023-05-07T05:00:09;14.00;99.90
6146;DHT22;3104;50.348;7.620;2023-05-07T05:02:35;14.00;99.90
6146;DHT22;3104;50.348;7.620;2023-05-07T05:05:01;14.00;99.90
6146;DHT22;3104;50.348;7.620;2023-05-07T05:07:27;14.00;99.90
6146;DHT22;3104;50.348;7.620;2023-05-07T05:09:54;14.10;99.90
6146;DHT22;3104;50.348;7.620;2023-05-07T05:12:20;14.10;99.90
6146;DHT22;3104;50.348;7.620;2023-05-07T05:14:45;14.00;99.90
6146;DHT22;3104;50.348;7.620;2023-05-07T05:17:11;14.00;99.90
6146;DHT22;3104;50.348;7.620;2023-05-07T05:19:36;14.00;99.90
6146;DHT22;3104;50.348;7.620;2023-05-07T05:22:02;13.90;99.90
6146;DHT22;3104;50.348;7.620;2023-05-07T05:24:29;13.90;99.90
6146;DHT22;3104;50.348;7.620;2023-05-07T05:26:55;13.80;99.90
6146;DHT22;3104;50.348;7.620;2023-05-07T05:29:21;13.90;99.90
6146;DHT22;3104;50.348;7.620;2023-05-07T05:31:46;13.90;99.90
6146;DHT22;3104;50.348;7.620;2023-05-07T05:34:12;13.90;99.90
6146;DHT22;3104;50.348;7.620;2023-05-07T05:36:38;14.00;99.90
6146;DHT22;3104;50.348;7.620;2023-05-07T05:39:03;13.90;99.90
6146;DHT22;3104;50.348;7.620;2023-05-07T05:41:29;14.00;99.90
6146;DHT22;3104;50.348;7.620;2023-05-07T05:43:55;14.00;99.90
6146;DHT22;3104;50.348;7.620;2023-05-07T05:46:21;14.10;99.90
6146;DHT22;3104;50.348;7.620;2023-05-07T05:48:46;14.20;99.90
6146;DHT22;3104;50.348;7.620;2023-05-07T05:51:12;14.30;99.90
6146;DHT22;3104;50.348;7.620;2023-05-07T05:53:37;14.40;99.90
6146;DHT22;3104;50.348;7.620;2023-05-07T05:56:03;14.50;99.90
6146;DHT22;3104;50.348;7.620;2023-05-07T05:58:29;14.60;99.90
6146;DHT22;3104;50.348;7.620;2023-05-07T06:00:55;14.70;99.90
6146;DHT22;3104;50.348;7.620;2023-05-07T06:03:21;14.80;99.90
6146;DHT22;3104;50.348;7.620;2023-05-07T06:05:47;15.00;99.90
6146;DHT22;3104;50.348;7.620;2023-05-07T06:08:13;15.20;99.90
6146;DHT22;3104;50.348;7.620;2023-05-07T06:10:39;15.20;99.90
6146;DHT22;3104;50.348;7.620;2023-05-07T06:13:04;15.20;99.90
6146;DHT22;3104;50.348;7.620;2023-05-07T06:15:30;15.40;99.90
6146;DHT22;3104;50.348;7.620;2023-05-07T06:17:56;15.40;99.90
6146;DHT22;3104;50.348;7.620;2023-05-07T06:20:23;15.40;99.90
6146;DHT22;3104;50.348;7.620;2023-05-07T06:22:48;15.50;99.90
6146;DHT22;3104;50.348;7.620;2023-05-07T06:25:14;15.50;99.90
6146;DHT22;3104;50.348;7.620;2023-05-07T06:27:40;15.70;99.90
6146;DHT22;3104;50.348;7.620;2023-05-07T06:30:06;15.80;99.90
6146;DHT22;3104;50.348;7.620;2023-05-07T06:32:32;15.90;99.90
6146;DHT22;3104;50.348;7.620;2023-05-07T06:34:57;16.10;99.90
6146;DHT22;3104;50.348;7.620;2023-05-07T06:37:23;16.20;99.90
6146;DHT22;3104;50.348;7.620;2023-05-07T06:39:48;16.20;99.90
6146;DHT22;3104;50.348;7.620;2023-05-07T06:42:14;16.30;99.90
6146;DHT22;3104;50.348;7.620;2023-05-07T06:44:40;16.30;99.90
6146;DHT22;3104;50.348;7.620;2023-05-07T06:47:05;16.40;99.90
6146;DHT22;3104;50.348;7.620;2023-05-07T06:49:31;16.50;99.90
6146;DHT22;3104;50.348;7.620;2023-05-07T06:51:57;16.30;99.90
6146;DHT22;3104;50.348;7.620;2023-05-07T06:54:23;16.40;99.90
6146;DHT22;3104;50.348;7.620;2023-05-07T06:56:48;16.60;99.90
6146;DHT22;3104;50.348;7.620;2023-05-07T06:59:14;16.70;99.90
6146;DHT22;3104;50.348;7.620;2023-05-07T07:01:40;16.80;99.90
6146;DHT22;3104;50.348;7.620;2023-05-07T07:04:05;16.90;99.90
6146;DHT22;3104;50.348;7.620;2023-05-07T07:06:31;16.90;99.90
6146;DHT22;3104;50.348;7.620;2023-05-07T07:08:58;16.90;99.90
6146;DHT22;3104;50.348;7.620;2023-05-07T07:11:23;16.70;99.90
6146;DHT22;3104;50.348;7.620;2023-05-07T07:13:49;16.90;99.90
6146;DHT22;3104;50.348;7.620;2023-05-07T07:16:16;16.70;99.90
6146;DHT22;3104;50.348;7.620;2023-05-07T07:18:41;16.70;99.90
6146;DHT22;3104;50.348;7.620;2023-05-07T07:21:07;16.90;99.90
6146;DHT22;3104;50.348;7.620;2023-05-07T07:23:32;16.90;99.90
6146;DHT22;3104;50.348;7.620;2023-05-07T07:25:58;17.10;99.90
6146;DHT22;3104;50.348;7.620;2023-05-07T07:28:24;17.30;99.90
6146;DHT22;3104;50.348;7.620;2023-05-07T07:30:49;17.50;99.90
6146;DHT22;3104;50.348;7.620;2023-05-07T07:33:15;17.70;99.90
6146;DHT22;3104;50.348;7.620;2023-05-07T07:35:41;17.90;99.90
6146;DHT22;3104;50.348;7.620;2023-05-07T07:38:06;17.70;99.90
6146;DHT22;3104;50.348;7.620;2023-05-07T07:40:34;17.90;99.90
6146;DHT22;3104;50.348;7.620;2023-05-07T07:43:00;17.70;99.90
6146;DHT22;3104;50.348;7.620;2023-05-07T07:45:26;17.80;99.90
6146;DHT22;3104;50.348;7.620;2023-05-07T07:47:52;18.00;99.90
6146;DHT22;3104;50.348;7.620;2023-05-07T07:50:18;17.90;99.90
6146;DHT22;3104;50.348;7.620;2023-05-07T07:52:44;18.10;99.90
6146;DHT22;3104;50.348;7.620;2023-05-07T07:55:09;18.20;99.90
6146;DHT22;3104;50.348;7.620;2023-05-07T07:57:35;18.60;99.90
6146;DHT22;3104;50.348;7.620;2023-05-07T08:00:01;18.60;99.90
6146;DHT22;3104;50.348;7.620;2023-05-07T08:02:26;18.60;99.90
6146;DHT22;3104;50.348;7.620;2023-05-07T08:04:52;18.70;99.90
6146;DHT22;3104;50.348;7.620;2023-05-07T08:07:18;18.70;99.90
6146;DHT22;3104;50.348;7.620;2023-05-07T08:09:46;18.20;99.90
6146;DHT22;3104;50.348;7.620;2023-05-07T08:12:12;18.10;99.90
6146;DHT22;3104;50.348;7.620;2023-05-07T08:14:37;18.20;99.90
6146;DHT22;3104;50.348;7.620;2023-05-07T08:17:03;18.20;99.90
6146;DHT22;3104;50.348;7.620;2023-05-07T08:19:29;18.10;99.90
6146;DHT22;3104;50.348;7.620;2023-05-07T08:21:54;18.10;99.90
6146;DHT22;3104;50.348;7.620;2023-05-07T08:24:21;18.10;99.90
6146;DHT22;3104;50.348;7.620;2023-05-07T08:26:46;18.50;99.90
6146;DHT22;3104;50.348;7.620;2023-05-07T08:29:12;19.10;99.90
6146;DHT22;3104;50.348;7.620;2023-05-07T08:31:37;20.10;99.90
6146;DHT22;3104;50.348;7.620;2023-05-07T08:34:06;20.60;99.90
6146;DHT22;3104;50.348;7.620;2023-05-07T08:36:32;20.40;99.90
6146;DHT22;3104;50.348;7.620;2023-05-07T08:38:58;20.60;99.90
6146;DHT22;3104;50.348;7.620;2023-05-07T08:41:24;20.80;99.90
6146;DHT22;3104;50.348;7.620;2023-05-07T08:43:50;20.70;99.90
6146;DHT22;3104;50.348;7.620;2023-05-07T08:46:21;20.40;99.90
6146;DHT22;3104;50.348;7.620;2023-05-07T08:48:51;20.20;99.90
6146;DHT22;3104;50.348;7.620;2023-05-07T08:51:21;20.50;99.90
6146;DHT22;3104;50.348;7.620;2023-05-07T08:53:48;21.20;99.90
6146;DHT22;3104;50.348;7.620;2023-05-07T08:56:14;21.30;99.90
6146;DHT22;3104;50.348;7.620;2023-05-07T08:58:41;21.70;93.50
6146;DHT22;3104;50.348;7.620;2023-05-07T09:01:14;21.70;94.20
6146;DHT22;3104;50.348;7.620;2023-05-07T09:03:40;21.70;99.80
6146;DHT22;3104;50.348;7.620;2023-05-07T09:06:07;21.80;96.30
6146;DHT22;3104;50.348;7.620;2023-05-07T09:08:33;21.80;98.30
6146;DHT22;3104;50.348;7.620;2023-05-07T09:10:59;21.60;99.90
6146;DHT22;3104;50.348;7.620;2023-05-07T09:13:25;21.40;99.00
6146;DHT22;3104;50.348;7.620;2023-05-07T09:15:52;21.10;99.90
6146;DHT22;3104;50.348;7.620;2023-05-07T09:18:17;21.20;99.90
6146;DHT22;3104;50.348;7.620;2023-05-07T09:20:43;21.10;93.40
6146;DHT22;3104;50.348;7.620;2023-05-07T09:23:09;20.90;98.30
6146;DHT22;3104;50.348;7.620;2023-05-07T09:25:35;21.00;99.00
6146;DHT22;3104;50.348;7.620;2023-05-07T09:28:03;20.60;99.90
6146;DHT22;3104;50.348;7.620;2023-05-07T09:30:29;21.30;99.90
6146;DHT22;3104;50.348;7.620;2023-05-07T09:32:56;21.40;98.90
6146;DHT22;3104;50.348;7.620;2023-05-07T09:35:21;22.10;92.80
6146;DHT22;3104;50.348;7.620;2023-05-07T09:37:49;22.90;84.40
6146;DHT22;3104;50.348;7.620;2023-05-07T09:40:29;23.10;76.70
6146;DHT22;3104;50.348;7.620;2023-05-07T09:42:55;23.30;71.10
6146;DHT22;3104;50.348;7.620;2023-05-07T09:45:22;23.70;68.00
6146;DHT22;3104;50.348;7.620;2023-05-07T09:47:49;23.60;70.00
6146;DHT22;3104;50.348;7.620;2023-05-07T09:50:19;24.10;68.80
6146;DHT22;3104;50.348;7.620;2023-05-07T09:52:46;24.30;57.20
6146;DHT22;3104;50.348;7.620;2023-05-07T09:55:13;24.80;53.00
6146;DHT22;3104;50.348;7.620;2023-05-07T09:57:40;24.90;49.90
6146;DHT22;3104;50.348;7.620;2023-05-07T10:00:07;24.70;51.20
6146;DHT22;3104;50.348;7.620;2023-05-07T10:02:35;24.70;49.40
6146;DHT22;3104;50.348;7.620;2023-05-07T10:05:02;25.00;49.30
6146;DHT22;3104;50.348;7.620;2023-05-07T10:07:28;23.70;50.50
6146;DHT22;3104;50.348;7.620;2023-05-07T10:09:55;23.80;58.10
6146;DHT22;3104;50.348;7.620;2023-05-07T10:12:21;24.20;54.50
6146;DHT22;3104;50.348;7.620;2023-05-07T10:14:47;24.20;51.40
6146;DHT22;3104;50.348;7.620;2023-05-07T10:17:16;24.30;48.80
6146;DHT22;3104;50.348;7.620;2023-05-07T10:19:44;23.50;61.00
6146;DHT22;3104;50.348;7.620;2023-05-07T10:22:10;24.00;54.20
6146;DHT22;3104;50.348;7.620;2023-05-07T10:24:36;24.20;43.60
6146;DHT22;3104;50.348;7.620;2023-05-07T10:27:08;23.60;47.40
6146;DHT22;3104;50.348;7.620;2023-05-07T10:32:50;24.60;41.80
6146;DHT22;3104;50.348;7.620;2023-05-07T10:35:29;25.20;38.00
6146;DHT22;3104;50.348;7.620;2023-05-07T10:37:57;25.70;33.30
6146;DHT22;3104;50.348;7.620;2023-05-07T10:40:23;25.40;31.40
6146;DHT22;3104;50.348;7.620;2023-05-07T10:42:59;25.30;32.00
6146;DHT22;3104;50.348;7.620;2023-05-07T10:45:26;25.40;34.60
6146;DHT22;3104;50.348;7.620;2023-05-07T10:48:15;25.10;36.30
6146;DHT22;3104;50.348;7.620;2023-05-07T10:50:44;25.60;38.30
6146;DHT22;3104;50.348;7.620;2023-05-07T10:55:50;24.50;41.30
6146;DHT22;3104;50.348;7.620;2023-05-07T10:58:25;25.40;36.70
6146;DHT22;3104;50.348;7.620;2023-05-07T11:00:59;25.90;34.70
6146;DHT22;3104;50.348;7.620;2023-05-07T11:03:26;26.60;33.60
6146;DHT22;3104;50.348;7.620;2023-05-07T11:06:09;26.30;29.50
6146;DHT22;3104;50.348;7.620;2023-05-07T11:08:55;25.20;35.60
6146;DHT22;3104;50.348;7.620;2023-05-07T11:11:45;25.70;35.30
6146;DHT22;3104;50.348;7.620;2023-05-07T11:14:11;26.30;33.30
6146;DHT22;3104;50.348;7.620;2023-05-07T11:16:37;26.80;30.40
6146;DHT22;3104;50.348;7.620;2023-05-07T11:19:04;27.20;31.30
6146;DHT22;3104;50.348;7.620;2023-05-07T11:21:42;27.30;27.20
6146;DHT22;3104;50.348;7.620;2023-05-07T11:24:09;27.20;25.20
6146;DHT22;3104;50.348;7.620;2023-05-07T11:29:13;26.00;30.20
6146;DHT22;3104;50.348;7.620;2023-05-07T11:31:39;25.90;30.90
6146;DHT22;3104;50.348;7.620;2023-05-07T11:34:05;26.20;28.50
6146;DHT22;3104;50.348;7.620;2023-05-07T11:36:32;26.20;29.40
6146;DHT22;3104;50.348;7.620;2023-05-07T11:38:58;26.30;26.70
6146;DHT22;3104;50.348;7.620;2023-05-07T11:41:34;25.50;31.10
6146;DHT22;3104;50.348;7.620;2023-05-07T11:44:00;25.10;35.40
6146;DHT22;3104;50.348;7.620;2023-05-07T11:46:27;25.40;33.30
6146;DHT22;3104;50.348;7.620;2023-05-07T11:48:53;25.40;31.30
6146;DHT22;3104;50.348;7.620;2023-05-07T11:51:23;25.50;29.40
6146;DHT22;3104;50.348;7.620;2023-05-07T11:53:50;24.40;38.90
6146;DHT22;3104;50.348;7.620;2023-05-07T11:56:17;24.70;37.50
6146;DHT22;3104;50.348;7.620;2023-05-07T11:58:44;24.10;37.60
6146;DHT22;3104;50.348;7.620;2023-05-07T12:01:12;24.00;40.10
6146;DHT22;3104;50.348;7.620;2023-05-07T12:03:40;23.70;41.60
6146;DHT22;3104;50.348;7.620;2023-05-07T12:06:12;23.40;42.80
6146;DHT22;3104;50.348;7.620;2023-05-07T12:08:39;23.80;44.60
6146;DHT22;3104;50.348;7.620;2023-05-07T12:11:25;24.20;47.10
6146;DHT22;3104;50.348;7.620;2023-05-07T12:13:51;24.30;42.20
6146;DHT22;3104;50.348;7.620;2023-05-07T12:16:17;24.30;44.60
6146;DHT22;3104;50.348;7.620;2023-05-07T12:18:44;24.50;41.70
6146;DHT22;3104;50.348;7.620;2023-05-07T12:21:10;24.00;43.80
6146;DHT22;3104;50.348;7.620;2023-05-07T12:23:36;24.20;47.90
6146;DHT22;3104;50.348;7.620;2023-05-07T12:26:02;24.50;44.80
6146;DHT22;3104;50.348;7.620;2023-05-07T12:28:28;23.70;49.30
6146;DHT22;3104;50.348;7.620;2023-05-07T12:30:54;23.80;48.10
6146;DHT22;3104;50.348;7.620;2023-05-07T12:33:24;24.00;44.90
6146;DHT22;3104;50.348;7.620;2023-05-07T12:35:50;24.00;44.30
6146;DHT22;3104;50.348;7.620;2023-05-07T12:38:17;24.10;43.00
6146;DHT22;3104;50.348;7.620;2023-05-07T12:40:47;24.10;44.60
6146;DHT22;3104;50.348;7.620;2023-05-07T12:43:26;23.80;43.30
6146;DHT22;3104;50.348;7.620;2023-05-07T12:45:55;23.20;46.40
6146;DHT22;3104;50.348;7.620;2023-05-07T12:48:22;23.10;47.60
6146;DHT22;3104;50.348;7.620;2023-05-07T12:50:55;23.30;47.10
6146;DHT22;3104;50.348;7.620;2023-05-07T12:53:23;23.20;49.30
6146;DHT22;3104;50.348;7.620;2023-05-07T12:55:52;23.10;52.60
6146;DHT22;3104;50.348;7.620;2023-05-07T12:58:19;23.30;49.60
6146;DHT22;3104;50.348;7.620;2023-05-07T13:00:47;23.20;54.90
6146;DHT22;3104;50.348;7.620;2023-05-07T13:03:25;23.70;46.20
6146;DHT22;3104;50.348;7.620;2023-05-07T13:05:51;23.70;41.80
6146;DHT22;3104;50.348;7.620;2023-05-07T13:08:25;23.80;43.10
6146;DHT22;3104;50.348;7.620;2023-05-07T13:10:51;24.10;42.80
6146;DHT22;3104;50.348;7.620;2023-05-07T13:13:16;24.30;40.40
6146;DHT22;3104;50.348;7.620;2023-05-07T13:15:42;24.40;41.80
6146;DHT22;3104;50.348;7.620;2023-05-07T13:18:07;24.90;44.80
6146;DHT22;3104;50.348;7.620;2023-05-07T13:20:35;25.30;36.60
6146;DHT22;3104;50.348;7.620;2023-05-07T13:23:01;24.70;38.30
6146;DHT22;3104;50.348;7.620;2023-05-07T13:25:27;24.20;41.00
6146;DHT22;3104;50.348;7.620;2023-05-07T13:27:53;24.20;44.40
6146;DHT22;3104;50.348;7.620;2023-05-07T13:30:18;24.30;38.90
6146;DHT22;3104;50.348;7.620;2023-05-07T13:32:44;24.30;41.80
6146;DHT22;3104;50.348;7.620;2023-05-07T13:35:10;24.20;46.80
6146;DHT22;3104;50.348;7.620;2023-05-07T13:37:36;23.80;65.50
6146;DHT22;3104;50.348;7.620;2023-05-07T13:40:02;23.40;75.70
6146;DHT22;3104;50.348;7.620;2023-05-07T13:42:27;23.00;91.10
6146;DHT22;3104;50.348;7.620;2023-05-07T13:44:53;22.60;82.10
6146;DHT22;3104;50.348;7.620;2023-05-07T13:47:18;22.60;98.50
6146;DHT22;3104;50.348;7.620;2023-05-07T13:49:44;22.90;93.30
6146;DHT22;3104;50.348;7.620;2023-05-07T13:52:09;23.30;99.90
6146;DHT22;3104;50.348;7.620;2023-05-07T13:54:36;23.50;81.70
6146;DHT22;3104;50.348;7.620;2023-05-07T13:57:01;24.00;92.60
6146;DHT22;3104;50.348;7.620;2023-05-07T13:59:27;24.30;69.50
6146;DHT22;3104;50.348;7.620;2023-05-07T14:01:52;24.00;56.10
6146;DHT22;3104;50.348;7.620;2023-05-07T14:04:20;23.60;50.00
6146;DHT22;3104;50.348;7.620;2023-05-07T14:06:45;23.80;46.40
6146;DHT22;3104;50.348;7.620;2023-05-07T14:09:11;24.00;44.00
6146;DHT22;3104;50.348;7.620;2023-05-07T14:11:38;24.00;45.30
6146;DHT22;3104;50.348;7.620;2023-05-07T14:14:05;24.00;47.20
6146;DHT22;3104;50.348;7.620;2023-05-07T14:16:30;24.10;40.60
6146;DHT22;3104;50.348;7.620;2023-05-07T14:18:56;23.90;45.20
6146;DHT22;3104;50.348;7.620;2023-05-07T14:21:21;24.00;45.50
6146;DHT22;3104;50.348;7.620;2023-05-07T14:23:47;23.70;49.70
6146;DHT22;3104;50.348;7.620;2023-05-07T14:26:13;24.00;47.10
6146;DHT22;3104;50.348;7.620;2023-05-07T14:28:40;23.70;49.30
6146;DHT22;3104;50.348;7.620;2023-05-07T14:31:07;23.10;52.10
6146;DHT22;3104;50.348;7.620;2023-05-07T14:33:33;23.10;57.90
6146;DHT22;3104;50.348;7.620;2023-05-07T14:35:58;23.00;45.30
6146;DHT22;3104;50.348;7.620;2023-05-07T14:38:24;23.10;45.00
6146;DHT22;3104;50.348;7.620;2023-05-07T14:40:50;23.20;42.00
6146;DHT22;3104;50.348;7.620;2023-05-07T14:43:15;23.10;39.20
6146;DHT22;3104;50.348;7.620;2023-05-07T14:45:41;23.20;40.70
6146;DHT22;3104;50.348;7.620;2023-05-07T14:48:06;23.30;36.10
6146;DHT22;3104;50.348;7.620;2023-05-07T14:50:34;23.60;35.60
6146;DHT22;3104;50.348;7.620;2023-05-07T14:53:00;23.60;33.80
6146;DHT22;3104;50.348;7.620;2023-05-07T14:55:25;23.90;31.50
6146;DHT22;3104;50.348;7.620;2023-05-07T14:57:51;24.60;35.20
6146;DHT22;3104;50.348;7.620;2023-05-07T15:00:16;25.00;28.80
6146;DHT22;3104;50.348;7.620;2023-05-07T15:02:42;24.90;31.10
6146;DHT22;3104;50.348;7.620;2023-05-07T15:05:08;24.20;31.70
6146;DHT22;3104;50.348;7.620;2023-05-07T15:07:33;24.20;35.50
6146;DHT22;3104;50.348;7.620;2023-05-07T15:09:59;24.50;32.80
6146;DHT22;3104;50.348;7.620;2023-05-07T15:12:25;24.20;29.50
6146;DHT22;3104;50.348;7.620;2023-05-07T15:14:51;24.40;28.30
6146;DHT22;3104;50.348;7.620;2023-05-07T15:17:16;24.70;27.60
6146;DHT22;3104;50.348;7.620;2023-05-07T15:19:42;24.70;26.00
6146;DHT22;3104;50.348;7.620;2023-05-07T15:22:07;24.30;26.20
6146;DHT22;3104;50.348;7.620;2023-05-07T15:24:33;24.00;27.20
6146;DHT22;3104;50.348;7.620;2023-05-07T15:26:58;24.00;28.20
6146;DHT22;3104;50.348;7.620;2023-05-07T15:29:24;24.00;25.70
6146;DHT22;3104;50.348;7.620;2023-05-07T15:31:50;23.90;24.40
6146;DHT22;3104;50.348;7.620;2023-05-07T15:34:17;23.70;23.30
6146;DHT22;3104;50.348;7.620;2023-05-07T15:36:42;23.60;23.50
6146;DHT22;3104;50.348;7.620;2023-05-07T15:39:08;23.40;24.20
6146;DHT22;3104;50.348;7.620;2023-05-07T15:41:33;23.20;25.30
6146;DHT22;3104;50.348;7.620;2023-05-07T15:43:59;23.20;26.90
6146;DHT22;3104;50.348;7.620;2023-05-07T15:46:25;23.10;31.00
6146;DHT22;3104;50.348;7.620;2023-05-07T15:48:52;23.10;36.50
6146;DHT22;3104;50.348;7.620;2023-05-07T15:51:18;22.70;44.70
6146;DHT22;3104;50.348;7.620;2023-05-07T15:53:44;22.60;47.80
6146;DHT22;3104;50.348;7.620;2023-05-07T15:56:09;22.60;48.60
6146;DHT22;3104;50.348;7.620;2023-05-07T15:58:35;22.70;45.10
6146;DHT22;3104;50.348;7.620;2023-05-07T16:01:01;22.60;51.20
6146;DHT22;3104;50.348;7.620;2023-05-07T16:03:27;22.50;50.50
6146;DHT22;3104;50.348;7.620;2023-05-07T16:05:56;22.60;51.60